Time;durP1;ratioP1;P1;durP2;ratioP2;P2;SDS_P1;SDS_P2;PMS_P1;PMS_P2;Temp;Humidity;BMP_temperature;BMP_pressure;BME280_temperature;BME280_humidity;BME280_pressure;Samples;Min_cycle;Max_cycle;Signal;HPM_P1;HPM_P2
2022/04/25 00:00:46;;;;;;;6.47;3.33;;;;;;;;;;5128639;28;20043;-58
2022/04/25 00:03:11;;;;;;;3.83;2.35;;;;;;;;;;5127526;27;20043;-58
2022/04/25 00:05:37;;;;;;;2.95;1.95;;;;;;;;;;5127235;28;20506;-57
2022/04/25 00:08:02;;;;;;;2.90;1.88;;;;;;;;;;5128125;28;20528;-58
2022/04/25 00:10:27;;;;;;;2.00;1.58;;;;;;;;;;5127702;28;20042;-57
2022/04/25 00:12:53;;;;;;;3.25;2.20;;;;;;;;;;5127581;28;20077;-58
2022/04/25 00:15:18;;;;;;;5.13;2.00;;;;;;;;;;5128104;28;20142;-57
2022/04/25 00:17:43;;;;;;;2.75;2.17;;;;;;;;;;5128055;28;20173;-57
2022/04/25 00:20:10;;;;;;;3.80;2.67;;;;;;;;;;5127819;28;20035;-58
2022/04/25 00:22:35;;;;;;;1.90;1.20;;;;;;;;;;5127565;28;20051;-57
2022/04/25 00:25:02;;;;;;;2.03;1.38;;;;;;;;;;5128134;28;20038;-58
2022/04/25 00:27:29;;;;;;;5.03;1.38;;;;;;;;;;5126422;28;20597;-56
2022/04/25 00:29:55;;;;;;;1.48;0.80;;;;;;;;;;5127388;28;20046;-58
2022/04/25 00:32:20;;;;;;;5.53;2.40;;;;;;;;;;5127281;28;20039;-57
2022/04/25 00:34:45;;;;;;;14.32;8.93;;;;;;;;;;5127819;28;20039;-57
2022/04/25 00:37:11;;;;;;;4.30;3.25;;;;;;;;;;5126452;28;20050;-58
2022/04/25 00:39:36;;;;;;;4.45;2.92;;;;;;;;;;5127133;28;20586;-58
2022/04/25 00:42:01;;;;;;;5.93;5.32;;;;;;;;;;5127481;28;20747;-58
2022/04/25 00:44:27;;;;;;;10.30;8.05;;;;;;;;;;5127944;28;20079;-57
2022/04/25 00:46:53;;;;;;;5.60;4.75;;;;;;;;;;5126012;28;20091;-57
2022/04/25 00:49:18;;;;;;;11.45;8.55;;;;;;;;;;5127231;28;20035;-57
2022/04/25 00:51:43;;;;;;;4.75;3.63;;;;;;;;;;5127376;28;20508;-57
2022/04/25 00:54:09;;;;;;;7.70;4.05;;;;;;;;;;5127699;28;20058;-58
2022/04/25 00:56:35;;;;;;;3.58;3.08;;;;;;;;;;5127895;28;20043;-58
2022/04/25 00:59:00;;;;;;;2.45;1.73;;;;;;;;;;5126384;28;20046;-57
2022/04/25 01:01:26;;;;;;;12.38;2.67;;;;;;;;;;5127653;28;20092;-57
2022/04/25 01:03:51;;;;;;;3.00;2.33;;;;;;;;;;5126487;28;20524;-57
2022/04/25 01:06:16;;;;;;;5.47;3.03;;;;;;;;;;5126923;28;20494;-57
2022/04/25 01:08:43;;;;;;;4.45;2.25;;;;;;;;;;5127673;28;20038;-57
2022/04/25 01:11:08;;;;;;;2.90;2.03;;;;;;;;;;5127422;28;20393;-57
2022/04/25 01:13:34;;;;;;;4.88;2.78;;;;;;;;;;5127016;27;20572;-58
2022/04/25 01:15:59;;;;;;;3.83;1.58;;;;;;;;;;5127435;28;20051;-57
2022/04/25 01:18:24;;;;;;;3.63;1.90;;;;;;;;;;5126377;28;20043;-57
2022/04/25 01:20:52;;;;;;;4.00;2.35;;;;;;;;;;5126947;28;20460;-57
2022/04/25 01:28:49;;;;;;;2.55;1.88;;;;;;;;;;5126140;28;20083;-58
2022/04/25 01:31:15;;;;;;;2.83;2.05;;;;;;;;;;5126340;28;20107;-58
2022/04/25 01:33:40;;;;;;;5.03;2.33;;;;;;;;;;5126585;28;20039;-57
2022/04/25 01:36:05;;;;;;;3.80;1.85;;;;;;;;;;5127082;28;20162;-58
2022/04/25 01:38:31;;;;;;;5.78;2.25;;;;;;;;;;5127045;28;20046;-57
2022/04/25 01:40:57;;;;;;;2.17;1.52;;;;;;;;;;5127232;28;20050;-57
2022/04/25 01:43:22;;;;;;;2.72;1.70;;;;;;;;;;5123275;28;20083;-57
2022/04/25 01:45:48;;;;;;;3.92;2.95;;;;;;;;;;5125730;28;20073;-58
2022/04/25 01:48:13;;;;;;;3.70;2.60;;;;;;;;;;5126424;28;20123;-57
2022/04/25 01:50:38;;;;;;;4.53;2.95;;;;;;;;;;5127146;28;20736;-58
2022/04/25 01:53:04;;;;;;;1.83;1.45;;;;;;;;;;5125972;28;20070;-58
2022/04/25 01:55:29;;;;;;;2.17;1.27;;;;;;;;;;5126725;28;20202;-58
2022/04/25 01:57:54;;;;;;;3.67;1.33;;;;;;;;;;5126788;28;20122;-58
2022/04/25 02:00:21;;;;;;;4.53;1.17;;;;;;;;;;5126646;28;20147;-55
2022/04/25 02:02:46;;;;;;;4.75;1.83;;;;;;;;;;5126721;28;20103;-57
2022/04/25 02:05:11;;;;;;;2.80;2.00;;;;;;;;;;5126459;28;20142;-58
2022/04/25 02:07:37;;;;;;;10.32;1.33;;;;;;;;;;5124575;28;20051;-58
2022/04/25 02:10:02;;;;;;;2.97;1.70;;;;;;;;;;5125367;28;20035;-57
2022/04/25 02:12:28;;;;;;;4.88;2.50;;;;;;;;;;5123468;28;20458;-58
2022/04/25 02:14:53;;;;;;;3.80;1.88;;;;;;;;;;5124029;28;20042;-58
2022/04/25 02:17:19;;;;;;;2.38;1.77;;;;;;;;;;5125443;28;20484;-57
2022/04/25 02:19:44;;;;;;;4.07;1.75;;;;;;;;;;5126565;28;20039;-58
2022/04/25 02:22:10;;;;;;;2.70;1.85;;;;;;;;;;5126453;28;20043;-58
2022/04/25 02:24:35;;;;;;;3.63;2.17;;;;;;;;;;5124843;27;20047;-58
2022/04/25 02:27:03;;;;;;;1.60;1.15;;;;;;;;;;5125784;28;20525;-58
2022/04/25 02:29:32;;;;;;;2.83;2.15;;;;;;;;;;5106888;28;20054;-57
2022/04/25 02:31:58;;;;;;;2.30;1.70;;;;;;;;;;5126327;28;20115;-58
2022/04/25 02:34:24;;;;;;;4.72;2.20;;;;;;;;;;5106418;28;20860;-58
2022/04/25 02:36:49;;;;;;;5.68;2.95;;;;;;;;;;5126332;28;20050;-58
2022/04/25 02:39:14;;;;;;;3.17;1.17;;;;;;;;;;5125842;28;20127;-58
2022/04/25 02:41:40;;;;;;;1.92;1.42;;;;;;;;;;5126061;28;20490;-58
2022/04/25 02:44:05;;;;;;;2.22;1.85;;;;;;;;;;5125959;28;20055;-59
2022/04/25 02:46:31;;;;;;;2.55;1.90;;;;;;;;;;5126391;28;20047;-58
2022/04/25 02:48:56;;;;;;;3.35;2.30;;;;;;;;;;5126168;28;20450;-57
2022/04/25 02:51:22;;;;;;;1.67;1.58;;;;;;;;;;5125878;28;20082;-58
2022/04/25 02:53:47;;;;;;;2.08;1.70;;;;;;;;;;5124407;28;20035;-57
2022/04/25 02:56:12;;;;;;;5.15;2.58;;;;;;;;;;5126104;28;20039;-57
2022/04/25 02:58:39;;;;;;;3.70;2.60;;;;;;;;;;5125445;28;20132;-57
2022/04/25 03:01:04;;;;;;;9.32;2.72;;;;;;;;;;5125958;28;20074;-57
2022/04/25 03:03:31;;;;;;;7.82;2.60;;;;;;;;;;5125872;28;20067;-57
2022/04/25 03:05:56;;;;;;;2.83;1.88;;;;;;;;;;5125461;28;20039;-58
2022/04/25 03:08:22;;;;;;;4.38;2.90;;;;;;;;;;5125640;28;20176;-58
2022/04/25 03:10:48;;;;;;;3.88;2.22;;;;;;;;;;5125946;28;20081;-57
2022/04/25 03:13:14;;;;;;;2.83;2.00;;;;;;;;;;5125959;28;20119;-57
2022/04/25 03:15:40;;;;;;;3.08;2.05;;;;;;;;;;5124975;28;20512;-58
2022/04/25 03:18:07;;;;;;;3.05;2.03;;;;;;;;;;5125350;28;20081;-57
2022/04/25 03:20:33;;;;;;;2.40;1.33;;;;;;;;;;5125626;28;20039;-58
2022/04/25 03:22:58;;;;;;;1.88;1.00;;;;;;;;;;5125475;28;20058;-57
2022/04/25 03:25:23;;;;;;;2.25;1.83;;;;;;;;;;5125036;28;20115;-57
2022/04/25 03:27:49;;;;;;;1.95;1.58;;;;;;;;;;5125571;28;20058;-58
2022/04/25 03:30:14;;;;;;;1.85;1.23;;;;;;;;;;5124577;28;20099;-57
2022/04/25 03:32:44;;;;;;;3.28;2.03;;;;;;;;;;5125720;28;20042;-57
2022/04/25 03:35:10;;;;;;;3.35;1.58;;;;;;;;;;5125222;28;20051;-58
2022/04/25 03:37:37;;;;;;;3.78;1.58;;;;;;;;;;5127910;27;20518;-58
2022/04/25 03:40:04;;;;;;;1.15;0.80;;;;;;;;;;5129365;28;20051;-57
2022/04/25 03:42:30;;;;;;;3.65;2.63;;;;;;;;;;5128851;28;20502;-58
2022/04/25 03:44:55;;;;;;;4.95;1.90;;;;;;;;;;5128784;28;20043;-57
2022/04/25 03:47:20;;;;;;;1.73;1.50;;;;;;;;;;5128449;28;20070;-57
2022/04/25 03:49:46;;;;;;;9.95;1.90;;;;;;;;;;5128917;28;20041;-58
2022/04/25 03:52:11;;;;;;;1.67;1.30;;;;;;;;;;5128320;28;20054;-58
2022/04/25 03:57:20;;;;;;;2.15;1.15;;;;;;;;;;5127963;28;20099;-58
2022/04/25 03:59:46;;;;;;;4.78;1.67;;;;;;;;;;5128536;28;20087;-57
2022/04/25 04:02:11;;;;;;;2.90;2.05;;;;;;;;;;5128643;28;20267;-57
2022/04/25 04:04:36;;;;;;;6.60;4.50;;;;;;;;;;5128740;28;20043;-58
2022/04/25 04:07:02;;;;;;;9.95;8.23;;;;;;;;;;5127995;28;20065;-57
2022/04/25 04:09:46;;;;;;;8.65;7.82;;;;;;;;;;5128822;28;20043;-57
2022/04/25 04:12:23;;;;;;;12.77;5.88;;;;;;;;;;5127665;28;20219;-57
2022/04/25 04:14:48;;;;;;;9.52;6.38;;;;;;;;;;5128525;28;20099;-57
2022/04/25 04:17:17;;;;;;;8.10;4.20;;;;;;;;;;5128460;28;20872;-57
2022/04/25 04:19:42;;;;;;;2.63;2.25;;;;;;;;;;5128226;28;20043;-57
2022/04/25 04:22:08;;;;;;;4.53;3.47;;;;;;;;;;5128059;28;20097;-57
2022/04/25 04:24:36;;;;;;;16.65;3.20;;;;;;;;;;5128038;28;20210;-58
2022/04/25 04:27:02;;;;;;;3.92;3.00;;;;;;;;;;5126999;28;20054;-57
2022/04/25 04:29:29;;;;;;;3.25;2.03;;;;;;;;;;5127431;28;20051;-57
2022/04/25 04:31:56;;;;;;;5.82;2.17;;;;;;;;;;5128078;28;20128;-57
2022/04/25 04:34:21;;;;;;;17.85;12.93;;;;;;;;;;5127831;28;20054;-56
2022/04/25 04:36:46;;;;;;;5.45;3.17;;;;;;;;;;5128318;28;20047;-55
2022/04/25 04:39:12;;;;;;;2.58;1.17;;;;;;;;;;5128213;28;20039;-56
2022/04/25 04:41:37;;;;;;;2.95;0.90;;;;;;;;;;5128030;28;20551;-54
2022/04/25 04:44:03;;;;;;;1.70;1.05;;;;;;;;;;5127966;28;20462;-55
2022/04/25 04:46:29;;;;;;;1.63;1.23;;;;;;;;;;5128105;28;20050;-56
2022/04/25 04:48:54;;;;;;;3.63;1.95;;;;;;;;;;5127523;27;20062;-55
2022/04/25 04:51:19;;;;;;;9.07;4.68;;;;;;;;;;5128173;28;20767;-54
2022/04/25 04:53:44;;;;;;;3.65;2.60;;;;;;;;;;5128686;28;20039;-55
2022/04/25 04:56:10;;;;;;;2.35;1.77;;;;;;;;;;5127709;28;20066;-54
2022/04/25 04:58:35;;;;;;;18.65;3.08;;;;;;;;;;5127194;28;20065;-55
2022/04/25 05:01:01;;;;;;;2.85;2.38;;;;;;;;;;5127382;28;20501;-56
2022/04/25 05:03:27;;;;;;;4.50;1.77;;;;;;;;;;5125537;28;20107;-54
2022/04/25 05:05:52;;;;;;;4.85;2.35;;;;;;;;;;5127843;28;20058;-57
2022/04/25 05:08:18;;;;;;;8.27;4.15;;;;;;;;;;5127422;28;20108;-52
2022/04/25 05:10:43;;;;;;;6.28;4.43;;;;;;;;;;5127532;28;20490;-54
2022/04/25 05:13:09;;;;;;;3.15;2.17;;;;;;;;;;5127240;28;20039;-54
2022/04/25 05:15:35;;;;;;;4.20;3.17;;;;;;;;;;5127604;28;20041;-54
2022/04/25 05:18:01;;;;;;;3.13;2.75;;;;;;;;;;5127478;28;20542;-55
2022/04/25 05:20:26;;;;;;;4.90;2.38;;;;;;;;;;5126857;28;20047;-56
2022/04/25 05:22:52;;;;;;;4.38;3.15;;;;;;;;;;5126702;28;20046;-55
2022/04/25 05:25:19;;;;;;;5.28;2.60;;;;;;;;;;5127212;28;20023;-50
2022/04/25 05:27:48;;;;;;;7.95;2.95;;;;;;;;;;5125731;28;20130;-52
2022/04/25 05:30:14;;;;;;;15.77;11.50;;;;;;;;;;5124502;28;20130;-53
2022/04/25 05:32:46;;;;;;;4.93;4.43;;;;;;;;;;5125958;28;20074;-51
2022/04/25 05:35:12;;;;;;;6.43;3.67;;;;;;;;;;5126009;28;20033;-48
2022/04/25 05:37:38;;;;;;;4.78;2.88;;;;;;;;;;5126684;28;20049;-50
2022/04/25 05:40:04;;;;;;;5.20;2.63;;;;;;;;;;5125196;28;20027;-51
2022/04/25 05:42:29;;;;;;;9.80;3.67;;;;;;;;;;5126760;28;20039;-53
2022/04/25 05:44:55;;;;;;;77.85;69.00;;;;;;;;;;5124657;28;20604;-49
2022/04/25 05:47:20;;;;;;;17.58;15.45;;;;;;;;;;5122496;28;20461;-52
2022/04/25 05:52:29;;;;;;;8.70;4.68;;;;;;;;;;5125578;28;20089;-47
2022/04/25 05:54:54;;;;;;;6.05;3.90;;;;;;;;;;5125323;28;20646;-53
2022/04/25 05:57:20;;;;;;;9.18;4.75;;;;;;;;;;5106614;28;20829;-52
2022/04/25 05:59:45;;;;;;;4.55;3.67;;;;;;;;;;5124351;27;20155;-51
2022/04/25 06:02:11;;;;;;;4.32;1.88;;;;;;;;;;5127160;28;20047;-51
2022/04/25 06:04:36;;;;;;;11.85;4.93;;;;;;;;;;5127042;28;20138;-49
2022/04/25 06:07:04;;;;;;;5.18;3.17;;;;;;;;;;5126308;28;20093;-50
2022/04/25 06:09:29;;;;;;;6.57;3.85;;;;;;;;;;5126074;28;20150;-48
2022/04/25 06:11:54;;;;;;;8.57;2.88;;;;;;;;;;5107819;28;20125;-57
2022/04/25 06:14:21;;;;;;;10.00;4.80;;;;;;;;;;5126891;28;20134;-58
2022/04/25 06:16:46;;;;;;;4.70;3.63;;;;;;;;;;5126694;28;20039;-58
2022/04/25 06:19:12;;;;;;;10.15;4.05;;;;;;;;;;5126609;28;20092;-58
2022/04/25 06:21:37;;;;;;;4.32;3.92;;;;;;;;;;5126467;28;20773;-56
2022/04/25 06:24:03;;;;;;;5.35;3.90;;;;;;;;;;5124569;28;20463;-57
2022/04/25 06:26:30;;;;;;;12.18;9.50;;;;;;;;;;5126564;28;20510;-54
2022/04/25 06:28:55;;;;;;;17.23;4.57;;;;;;;;;;5125296;28;20039;-48
2022/04/25 06:31:22;;;;;;;30.98;19.38;;;;;;;;;;5126664;28;20387;-59
2022/04/25 06:33:48;;;;;;;52.53;36.45;;;;;;;;;;5125984;28;20070;-56
2022/04/25 06:36:13;;;;;;;50.22;40.50;;;;;;;;;;5126511;28;20534;-58
2022/04/25 06:38:38;;;;;;;47.47;33.80;;;;;;;;;;5126612;28;20510;-52
2022/04/25 06:41:04;;;;;;;42.38;35.83;;;;;;;;;;5126425;28;20149;-55
2022/04/25 06:43:30;;;;;;;50.22;28.98;;;;;;;;;;5126125;28;20043;-52
2022/04/25 06:45:56;;;;;;;29.77;26.30;;;;;;;;;;5126117;28;20390;-48
2022/04/25 06:48:21;;;;;;;26.60;19.73;;;;;;;;;;5126140;28;20540;-52
2022/04/25 06:50:48;;;;;;;19.98;17.77;;;;;;;;;;5126089;28;20451;-52
2022/04/25 06:53:13;;;;;;;22.67;17.02;;;;;;;;;;5124989;28;20643;-52
2022/04/25 06:55:39;;;;;;;12.68;8.95;;;;;;;;;;5125534;28;20070;-52
2022/04/25 06:58:06;;;;;;;17.23;8.77;;;;;;;;;;5125393;28;20039;-51
2022/04/25 07:00:32;;;;;;;14.82;10.57;;;;;;;;;;5125055;28;20063;-48
2022/04/25 07:02:57;;;;;;;37.53;15.02;;;;;;;;;;5104125;28;20509;-58
2022/04/25 07:05:24;;;;;;;40.38;22.45;;;;;;;;;;5124122;28;20530;-54
2022/04/25 07:07:49;;;;;;;19.30;16.50;;;;;;;;;;5125393;28;20046;-53
2022/04/25 07:10:15;;;;;;;19.52;15.05;;;;;;;;;;5126301;28;20047;-54
2022/04/25 07:12:40;;;;;;;22.17;13.38;;;;;;;;;;5128754;27;20043;-53
2022/04/25 07:15:06;;;;;;;17.02;12.40;;;;;;;;;;5129073;28;20047;-54
2022/04/25 07:17:31;;;;;;;15.70;14.18;;;;;;;;;;5129234;28;20055;-53
2022/04/25 07:19:56;;;;;;;18.73;14.05;;;;;;;;;;5128932;28;21017;-54
2022/04/25 07:30:34;;;;;;;6.38;5.38;;;;;;;;;;5126395;28;20066;-52
2022/04/25 07:33:00;;;;;;;13.43;7.32;;;;;;;;;;5129481;28;20039;-53
2022/04/25 07:35:26;;;;;;;13.10;6.78;;;;;;;;;;5128738;28;20062;-53
2022/04/25 07:37:51;;;;;;;3.50;3.13;;;;;;;;;;5128777;28;20042;-53
2022/04/25 07:40:17;;;;;;;25.40;9.63;;;;;;;;;;5128817;28;20045;-58
2022/04/25 07:42:42;;;;;;;21.88;16.05;;;;;;;;;;5128177;28;20421;-53
2022/04/25 07:45:09;;;;;;;21.75;17.10;;;;;;;;;;5128343;28;20100;-54
2022/04/25 07:47:35;;;;;;;41.50;27.88;;;;;;;;;;5125737;28;20070;-53
2022/04/25 07:50:00;;;;;;;83.93;60.95;;;;;;;;;;5125521;28;20614;-51
2022/04/25 07:52:26;;;;;;;104.80;84.60;;;;;;;;;;5127809;28;20058;-56
2022/04/25 07:54:56;;;;;;;69.43;41.40;;;;;;;;;;5128794;28;20130;-54
2022/04/25 07:57:21;;;;;;;77.45;59.28;;;;;;;;;;5128237;28;20131;-56
2022/04/25 07:59:47;;;;;;;50.80;41.83;;;;;;;;;;5126189;28;20122;-56
2022/04/25 08:02:13;;;;;;;79.03;65.20;;;;;;;;;;5127137;28;20494;-55
2022/04/25 08:04:38;;;;;;;72.40;55.13;;;;;;;;;;5128872;28;20053;-56
2022/04/25 08:07:03;;;;;;;41.67;27.38;;;;;;;;;;5127291;28;20657;-54
2022/04/25 08:09:29;;;;;;;10.55;9.10;;;;;;;;;;5128950;28;20448;-55
2022/04/25 08:17:56;;;;;;;29.50;20.40;;;;;;;;;;5127798;28;20407;-55
2022/04/25 08:17:59;;;;;;;27.45;23.67;;;;;;;;;;5125346;28;20050;-56
2022/04/25 08:20:15;;;;;;;12.70;9.45;;;;;;;;;;5124055;28;20063;-55
2022/04/25 08:22:40;;;;;;;9.23;7.60;;;;;;;;;;5126683;27;20035;-54
2022/04/25 08:25:07;;;;;;;13.63;7.10;;;;;;;;;;5127967;28;20521;-53
2022/04/25 08:27:33;;;;;;;17.30;8.98;;;;;;;;;;5127604;28;20139;-52
2022/04/25 08:29:59;;;;;;;9.25;6.28;;;;;;;;;;5128300;28;20461;-55
2022/04/25 08:32:24;;;;;;;10.90;6.70;;;;;;;;;;5127094;28;20148;-53
2022/04/25 08:34:49;;;;;;;7.00;4.07;;;;;;;;;;5124994;28;20118;-54
2022/04/25 08:37:16;;;;;;;21.33;6.18;;;;;;;;;;5127486;28;20051;-54
2022/04/25 08:39:41;;;;;;;6.32;4.47;;;;;;;;;;5128040;28;20027;-54
2022/04/25 08:42:09;;;;;;;11.07;3.60;;;;;;;;;;5127937;28;20141;-54
2022/04/25 08:44:34;;;;;;;5.35;3.30;;;;;;;;;;5127204;28;20047;-56
2022/04/25 08:46:59;;;;;;;4.10;2.67;;;;;;;;;;5128205;28;20142;-54
2022/04/25 08:49:25;;;;;;;7.07;4.28;;;;;;;;;;5127601;28;20163;-56
2022/04/25 08:51:58;;;;;;;10.05;3.17;;;;;;;;;;5127497;28;20054;-55
2022/04/25 08:54:24;;;;;;;3.65;3.00;;;;;;;;;;5125164;28;20065;-57
2022/04/25 08:56:50;;;;;;;3.42;2.47;;;;;;;;;;5127552;28;20117;-57
2022/04/25 08:59:15;;;;;;;3.90;3.15;;;;;;;;;;5127727;28;20135;-55
2022/04/25 09:01:40;;;;;;;9.93;9.05;;;;;;;;;;5127432;28;20531;-56
2022/04/25 09:04:06;;;;;;;5.90;5.40;;;;;;;;;;5126927;28;20445;-56
2022/04/25 09:06:31;;;;;;;4.93;2.05;;;;;;;;;;5127156;28;20967;-55
2022/04/25 09:08:57;;;;;;;3.70;2.15;;;;;;;;;;5121942;28;20043;-55
2022/04/25 09:14:09;;;;;;;3.22;2.05;;;;;;;;;;5122466;28;20053;-56
2022/04/25 09:16:34;;;;;;;11.38;6.07;;;;;;;;;;5123829;28;20039;-54
2022/04/25 09:19:00;;;;;;;2.88;1.83;;;;;;;;;;5125329;28;20047;-55
2022/04/25 09:21:25;;;;;;;3.78;1.67;;;;;;;;;;5122793;28;20043;-55
2022/04/25 09:23:53;;;;;;;4.30;2.40;;;;;;;;;;5124276;28;20059;-57
2022/04/25 09:26:27;;;;;;;3.50;1.60;;;;;;;;;;5123445;28;20407;-55
2022/04/25 09:28:54;;;;;;;6.72;1.67;;;;;;;;;;5122999;28;20059;-54
2022/04/25 09:31:22;;;;;;;15.50;2.63;;;;;;;;;;5123469;28;20650;-54
2022/04/25 09:33:47;;;;;;;7.07;1.88;;;;;;;;;;5121561;27;20087;-55
2022/04/25 09:36:14;;;;;;;13.68;2.83;;;;;;;;;;5122357;28;20948;-56
2022/04/25 09:38:40;;;;;;;4.10;1.52;;;;;;;;;;5122802;28;20047;-53
2022/04/25 09:41:09;;;;;;;8.82;5.00;;;;;;;;;;5122948;28;20134;-55
2022/04/25 09:43:35;;;;;;;23.83;20.17;;;;;;;;;;5122719;28;20529;-56
2022/04/25 09:46:08;;;;;;;3.75;1.95;;;;;;;;;;5120836;28;20048;-56
2022/04/25 09:48:33;;;;;;;3.53;1.30;;;;;;;;;;5123108;28;20120;-56
2022/04/25 09:51:02;;;;;;;4.80;1.80;;;;;;;;;;5123043;28;20059;-57
2022/04/25 09:53:45;;;;;;;5.13;1.52;;;;;;;;;;5122506;28;20054;-54
2022/04/25 09:56:15;;;;;;;6.55;1.67;;;;;;;;;;5122234;28;20354;-54
2022/04/25 09:58:41;;;;;;;2.35;1.40;;;;;;;;;;5122095;28;20502;-53
2022/04/25 10:01:13;;;;;;;3.40;1.98;;;;;;;;;;5123272;28;20086;-57
2022/04/25 10:03:39;;;;;;;2.65;1.73;;;;;;;;;;5122200;28;20047;-57
2022/04/25 10:06:04;;;;;;;1.77;0.95;;;;;;;;;;5122617;28;20042;-57
2022/04/25 10:08:35;;;;;;;4.40;2.50;;;;;;;;;;5123177;28;20082;-56
2022/04/25 10:11:04;;;;;;;5.43;1.20;;;;;;;;;;5122611;28;20099;-54
2022/04/25 10:13:31;;;;;;;4.57;2.78;;;;;;;;;;5122591;28;20046;-53
2022/04/25 10:15:56;;;;;;;1.20;1.10;;;;;;;;;;5122444;28;20047;-56
2022/04/25 10:18:22;;;;;;;4.72;2.78;;;;;;;;;;5121534;28;20050;-56
2022/04/25 10:20:48;;;;;;;3.33;1.25;;;;;;;;;;5122466;28;20055;-56
2022/04/25 10:23:14;;;;;;;8.63;2.38;;;;;;;;;;5122472;28;20814;-53
2022/04/25 10:25:43;;;;;;;2.78;1.10;;;;;;;;;;5121917;28;20046;-52
2022/04/25 10:28:12;;;;;;;1.80;1.08;;;;;;;;;;5121138;28;20054;-57
2022/04/25 10:30:39;;;;;;;6.22;0.88;;;;;;;;;;5122673;28;20043;-55
2022/04/25 10:33:36;;;;;;;3.13;0.70;;;;;;;;;;5125308;28;20094;-57
2022/04/25 10:36:01;;;;;;;6.68;2.28;;;;;;;;;;5107431;28;20127;-54
2022/04/25 10:38:47;;;;;;;1.45;0.65;;;;;;;;;;5125179;28;20057;-56
2022/04/25 10:44:18;;;;;;;4.47;1.50;;;;;;;;;;5124897;28;20063;-54
2022/04/25 10:47:02;;;;;;;1.58;0.88;;;;;;;;;;5124499;27;20073;-54
2022/04/25 10:49:31;;;;;;;1.73;0.93;;;;;;;;;;5124708;28;20035;-55
2022/04/25 10:51:56;;;;;;;1.55;0.68;;;;;;;;;;5125323;28;20171;-55
2022/04/25 10:54:23;;;;;;;7.45;2.35;;;;;;;;;;5096052;28;20222;-56
2022/04/25 10:57:07;;;;;;;3.08;0.65;;;;;;;;;;5124652;28;20035;-51
2022/04/25 10:59:32;;;;;;;5.22;1.75;;;;;;;;;;5124134;28;20513;-54
2022/04/25 11:01:58;;;;;;;5.75;1.17;;;;;;;;;;5125066;28;20047;-51
2022/04/25 11:04:23;;;;;;;4.20;2.63;;;;;;;;;;5124725;28;20494;-58
2022/04/25 11:07:08;;;;;;;2.35;1.13;;;;;;;;;;5124547;28;20039;-55
2022/04/25 11:09:39;;;;;;;1.00;0.50;;;;;;;;;;5123141;28;20043;-57
2022/04/25 11:12:04;;;;;;;7.63;1.17;;;;;;;;;;5124126;28;20051;-56
2022/04/25 11:14:30;;;;;;;1.00;0.73;;;;;;;;;;5124433;28;20047;-57
2022/04/25 11:17:05;;;;;;;2.35;1.83;;;;;;;;;;5125088;28;20059;-59
2022/04/25 11:19:48;;;;;;;7.25;1.67;;;;;;;;;;5123861;28;20051;-48
2022/04/25 11:22:32;;;;;;;14.60;13.25;;;;;;;;;;5124252;28;20410;-57
2022/04/25 11:25:17;;;;;;;24.48;22.20;;;;;;;;;;5124431;28;20031;-54
2022/04/25 11:28:01;;;;;;;19.08;17.23;;;;;;;;;;5121456;28;20071;-53
2022/04/25 11:30:27;;;;;;;9.40;8.48;;;;;;;;;;5124116;28;20037;-57
2022/04/25 11:32:52;;;;;;;9.73;6.50;;;;;;;;;;5106390;28;20043;-57
2022/04/25 11:35:22;;;;;;;37.33;31.63;;;;;;;;;;5125280;28;20066;-57
2022/04/25 11:37:48;;;;;;;24.95;22.27;;;;;;;;;;5123248;28;20043;-56
2022/04/25 11:40:14;;;;;;;64.65;58.45;;;;;;;;;;5124839;28;20528;-57
2022/04/25 11:42:40;;;;;;;21.58;15.73;;;;;;;;;;5124757;28;20043;-57
2022/04/25 11:45:06;;;;;;;51.65;46.90;;;;;;;;;;5125019;28;20074;-57
2022/04/25 11:47:31;;;;;;;11.40;10.27;;;;;;;;;;5125174;28;20583;-55
2022/04/25 11:49:57;;;;;;;7.78;6.15;;;;;;;;;;5124270;28;20126;-56
2022/04/25 11:52:23;;;;;;;29.50;26.60;;;;;;;;;;5123294;28;20058;-56
2022/04/25 11:54:49;;;;;;;30.02;27.33;;;;;;;;;;5124444;28;20490;-57
2022/04/25 11:57:15;;;;;;;10.35;9.15;;;;;;;;;;5124628;27;20038;-58
2022/04/25 11:59:40;;;;;;;17.60;13.38;;;;;;;;;;5127284;28;20043;-57
2022/04/25 12:02:06;;;;;;;25.40;23.10;;;;;;;;;;5128617;28;20053;-57
2022/04/25 12:04:34;;;;;;;28.30;25.67;;;;;;;;;;5128501;28;20047;-57
2022/04/25 12:07:04;;;;;;;15.18;13.65;;;;;;;;;;5128163;28;20107;-56
2022/04/25 12:18:12;;;;;;;29.10;26.45;;;;;;;;;;5128915;28;20098;-54
2022/04/25 12:20:39;;;;;;;12.95;11.75;;;;;;;;;;5128836;28;20074;-56
2022/04/25 12:23:04;;;;;;;11.63;10.45;;;;;;;;;;5127828;28;20066;-58
2022/04/25 12:25:30;;;;;;;4.95;4.50;;;;;;;;;;5127904;28;20067;-58
2022/04/25 12:28:17;;;;;;;19.50;15.57;;;;;;;;;;5127468;28;20143;-57
2022/04/25 12:30:44;;;;;;;11.60;8.68;;;;;;;;;;5127339;28;20138;-56
2022/04/25 12:33:10;;;;;;;17.27;11.30;;;;;;;;;;5126041;28;20031;-57
2022/04/25 12:35:36;;;;;;;16.52;15.10;;;;;;;;;;5124912;28;20039;-57
2022/04/25 12:38:03;;;;;;;8.10;3.45;;;;;;;;;;5125354;28;20112;-52
2022/04/25 12:40:28;;;;;;;9.48;8.68;;;;;;;;;;5126650;28;20041;-57
2022/04/25 12:42:54;;;;;;;17.02;15.30;;;;;;;;;;5127108;28;20129;-58
2022/04/25 12:45:21;;;;;;;12.35;11.13;;;;;;;;;;5126834;28;20082;-58
2022/04/25 12:47:53;;;;;;;13.65;11.45;;;;;;;;;;5125048;28;20047;-58
2022/04/25 12:50:38;;;;;;;10.52;9.52;;;;;;;;;;5127086;28;20502;-57
2022/04/25 12:53:04;;;;;;;10.55;9.65;;;;;;;;;;5125842;28;20074;-58
2022/04/25 12:56:01;;;;;;;7.32;4.78;;;;;;;;;;5128210;28;20179;-58
2022/04/25 12:58:32;;;;;;;10.30;9.25;;;;;;;;;;5078711;28;20053;-58
2022/04/25 13:00:58;;;;;;;9.52;6.28;;;;;;;;;;5128032;28;20077;-58
2022/04/25 13:03:25;;;;;;;8.05;7.30;;;;;;;;;;5127301;28;20068;-58
2022/04/25 13:05:50;;;;;;;7.57;6.03;;;;;;;;;;5127569;28;20049;-58
2022/04/25 13:08:16;;;;;;;10.60;5.93;;;;;;;;;;5127119;28;20154;-57
2022/04/25 13:10:43;;;;;;;6.55;5.95;;;;;;;;;;5127308;27;20050;-59
2022/04/25 13:13:08;;;;;;;7.72;5.80;;;;;;;;;;5125812;28;20031;-59
2022/04/25 13:15:35;;;;;;;9.32;7.40;;;;;;;;;;5127765;28;20038;-59
2022/04/25 13:18:01;;;;;;;7.32;6.55;;;;;;;;;;5126182;28;20150;-58
2022/04/25 13:20:31;;;;;;;6.97;6.15;;;;;;;;;;5126763;28;20398;-58
2022/04/25 13:22:56;;;;;;;5.18;4.70;;;;;;;;;;5127451;28;20065;-58
2022/04/25 13:25:23;;;;;;;6.40;4.93;;;;;;;;;;5127406;28;20166;-58
2022/04/25 13:27:49;;;;;;;5.85;3.97;;;;;;;;;;5127041;28;20051;-58
2022/04/25 13:30:14;;;;;;;5.25;3.70;;;;;;;;;;5127632;28;20039;-59
2022/04/25 13:32:40;;;;;;;10.45;5.00;;;;;;;;;;5127212;28;20061;-57
2022/04/25 13:35:06;;;;;;;3.72;2.25;;;;;;;;;;5127115;28;20107;-59
2022/04/25 13:37:31;;;;;;;5.28;4.78;;;;;;;;;;5126954;28;20082;-59
2022/04/25 13:39:57;;;;;;;5.93;3.17;;;;;;;;;;5125586;28;20039;-56
2022/04/25 13:42:22;;;;;;;5.88;3.40;;;;;;;;;;5125964;28;20146;-58
2022/04/25 13:44:48;;;;;;;3.40;2.85;;;;;;;;;;5126990;28;20043;-58
2022/04/25 13:47:13;;;;;;;5.32;3.00;;;;;;;;;;5126784;28;20051;-58
2022/04/25 13:49:38;;;;;;;13.15;4.20;;;;;;;;;;5127152;28;20043;-57
2022/04/25 13:52:04;;;;;;;5.95;4.00;;;;;;;;;;5126641;28;20050;-58
2022/04/25 13:54:29;;;;;;;3.42;2.72;;;;;;;;;;5126815;28;20051;-58
2022/04/25 13:56:55;;;;;;;5.72;4.20;;;;;;;;;;5127149;28;20050;-58
2022/04/25 13:59:21;;;;;;;2.08;1.05;;;;;;;;;;5126709;28;20043;-58
2022/04/25 14:01:46;;;;;;;3.35;2.65;;;;;;;;;;5126797;28;20051;-58
2022/04/25 14:04:11;;;;;;;3.83;2.28;;;;;;;;;;5126762;28;20043;-58
2022/04/25 14:06:37;;;;;;;4.00;2.25;;;;;;;;;;5105548;28;20096;-59
2022/04/25 14:09:02;;;;;;;3.00;1.90;;;;;;;;;;5126762;28;20051;-59
2022/04/25 14:11:29;;;;;;;3.78;2.42;;;;;;;;;;5126662;28;20043;-57
2022/04/25 14:13:55;;;;;;;10.82;4.57;;;;;;;;;;5127084;28;20050;-56
2022/04/25 14:16:21;;;;;;;6.80;2.95;;;;;;;;;;5126169;28;20069;-58
2022/04/25 14:18:46;;;;;;;5.15;3.72;;;;;;;;;;5106567;28;20063;-57
2022/04/25 14:21:12;;;;;;;3.63;2.08;;;;;;;;;;5125261;27;20059;-58
2022/04/25 14:23:38;;;;;;;6.78;3.22;;;;;;;;;;5126219;28;20050;-57
2022/04/25 14:26:04;;;;;;;7.28;2.33;;;;;;;;;;5126266;28;20402;-57
2022/04/25 14:28:30;;;;;;;2.50;0.77;;;;;;;;;;5125126;28;20399;-57
2022/04/25 14:30:55;;;;;;;1.92;1.10;;;;;;;;;;5125882;28;20047;-57
2022/04/25 14:33:22;;;;;;;3.78;1.42;;;;;;;;;;5125661;28;20097;-58
2022/04/25 14:35:47;;;;;;;2.05;1.13;;;;;;;;;;5125572;28;20047;-57
2022/04/25 14:38:13;;;;;;;3.88;1.77;;;;;;;;;;5126091;28;20513;-54
2022/04/25 14:40:38;;;;;;;6.07;2.10;;;;;;;;;;5125960;28;20520;-52
2022/04/25 14:43:06;;;;;;;4.63;1.90;;;;;;;;;;5125983;28;20139;-57
2022/04/25 14:45:33;;;;;;;2.05;1.27;;;;;;;;;;5126615;28;20038;-57
2022/04/25 14:47:58;;;;;;;3.33;1.50;;;;;;;;;;5126152;28;20120;-55
2022/04/25 14:55:51;;;;;;;3.88;2.33;;;;;;;;;;5125702;28;20524;-52
2022/04/25 14:58:16;;;;;;;4.95;1.65;;;;;;;;;;5126004;28;20039;-50
2022/04/25 15:00:42;;;;;;;4.25;0.93;;;;;;;;;;5125335;28;20118;-53
2022/04/25 15:03:09;;;;;;;2.60;1.15;;;;;;;;;;5125931;28;20092;-55
2022/04/25 15:05:40;;;;;;;3.13;1.20;;;;;;;;;;5125232;28;20066;-54
2022/04/25 15:08:08;;;;;;;1.73;1.30;;;;;;;;;;5125473;28;20049;-54
2022/04/25 15:10:34;;;;;;;2.05;1.42;;;;;;;;;;5125746;28;20130;-55
2022/04/25 15:12:59;;;;;;;2.25;1.33;;;;;;;;;;5125543;28;20489;-58
2022/04/25 15:15:25;;;;;;;4.30;1.42;;;;;;;;;;5125714;28;20035;-58
2022/04/25 15:17:50;;;;;;;2.13;1.13;;;;;;;;;;5125773;28;20047;-57